Time,TemperatureF,DewpointF,PressureIn,WindDirection,WindDirectionDegrees,WindSpeedMPH,WindSpeedGustMPH,Humidity,HourlyPrecipIn,Conditions,Clouds,dailyrainin,SoftwareType,DateUTC
2013-08-15 00:00:00,56.7,46.6,30.16,West,268,0.0,0.0,69,0.00,,---,0.00,VWS V14.01,2013-08-15 04:00:00,
2013-08-15 00:01:00,56.7,46.6,30.16,West,268,0.0,0.0,69,0.00,,---,0.00,VWS V14.01,2013-08-15 04:01:00,
2013-08-15 00:06:00,56.5,46.5,30.16,West,268,0.0,0.0,69,0.00,,---,0.00,VWS V14.01,2013-08-15 04:06:00,
2013-08-15 00:11:00,56.5,46.8,30.16,West,268,0.0,0.0,70,0.00,,---,0.00,VWS V14.01,2013-08-15 04:11:00,
2013-08-15 00:17:00,56.3,46.7,30.16,West,268,0.0,0.0,70,0.00,,---,0.00,VWS V14.01,2013-08-15 04:17:00,
2013-08-15 00:22:00,56.3,46.7,30.16,West,268,0.0,0.0,70,0.00,,---,0.00,VWS V14.01,2013-08-15 04:22:00,
2013-08-15 00:27:00,56.3,46.7,30.16,West,278,5.4,6.3,70,0.00,,---,0.00,VWS V14.01,2013-08-15 04:27:00,
2013-08-15 00:32:00,56.5,47.2,30.16,West,278,0.0,4.5,71,0.00,,---,0.00,VWS V14.01,2013-08-15 04:32:00,
2013-08-15 00:37:00,56.5,47.2,30.16,West,278,0.0,0.0,71,0.00,,---,0.00,VWS V14.01,2013-08-15 04:37:00,
2013-08-15 00:42:00,56.5,47.2,30.16,West,278,0.0,0.0,71,0.00,,---,0.00,VWS V14.01,2013-08-15 04:42:00,
2013-08-15 00:47:00,56.7,47.4,30.16,West,278,0.0,0.0,71,0.00,,---,0.00,VWS V14.01,2013-08-15 04:47:00,
2013-08-15 00:52:00,56.7,47.4,30.16,West,278,4.5,4.5,71,0.00,,---,0.00,VWS V14.01,2013-08-15 04:52:00,
2013-08-15 00:57:00,56.7,47.8,30.16,West,274,0.0,0.0,72,0.00,,---,0.00,VWS V14.01,2013-08-15 04:57:00,
2013-08-15 01:02:00,56.7,47.8,30.16,WNW,285,0.0,0.0,72,0.00,,---,0.00,VWS V14.01,2013-08-15 05:02:00,
2013-08-15 01:07:00,56.7,47.8,30.16,West,268,5.4,5.4,72,0.00,,---,0.00,VWS V14.01,2013-08-15 05:07:00,
2013-08-15 01:12:00,56.8,47.9,30.16,NW,305,6.3,6.3,72,0.00,,---,0.00,VWS V14.01,2013-08-15 05:12:00,
2013-08-15 01:17:00,56.8,47.9,30.16,NW,311,5.4,7.2,72,0.00,,---,0.00,VWS V14.01,2013-08-15 05:17:00,
2013-08-15 01:23:00,56.8,47.9,30.16,NW,314,5.4,5.4,72,0.00,,---,0.00,VWS V14.01,2013-08-15 05:23:00,
2013-08-15 01:28:00,56.8,47.9,30.16,WNW,294,7.2,7.2,72,0.00,,---,0.00,VWS V14.01,2013-08-15 05:28:00,
2013-08-15 01:33:00,56.8,47.9,30.16,NW,312,0.0,4.5,72,0.00,,---,0.00,VWS V14.01,2013-08-15 05:33:00,
2013-08-15 01:38:00,56.8,48.3,30.16,NW,320,5.4,5.4,73,0.00,,---,0.00,VWS V14.01,2013-08-15 05:38:00,
2013-08-15 01:43:00,56.8,48.3,30.16,NW,321,5.4,6.3,73,0.00,,---,0.00,VWS V14.01,2013-08-15 05:43:00,
2013-08-15 01:48:00,56.7,48.1,30.16,NW,321,0.0,5.4,73,0.00,,---,0.00,VWS V14.01,2013-08-15 05:48:00,
2013-08-15 01:53:00,56.7,48.1,30.16,NNW,335,5.4,6.3,73,0.00,,---,0.00,VWS V14.01,2013-08-15 05:53:00,
2013-08-15 01:58:00,56.5,47.9,30.16,NW,319,5.4,7.2,73,0.00,,---,0.00,VWS V14.01,2013-08-15 05:58:00,
2013-08-15 02:03:00,56.5,47.9,30.16,NNW,345,6.3,9.8,73,0.00,,---,0.00,VWS V14.01,2013-08-15 06:03:00,
2013-08-15 02:08:00,56.3,47.8,30.16,NW,323,5.4,8.1,73,0.00,,---,0.00,VWS V14.01,2013-08-15 06:08:00,
2013-08-15 02:13:00,56.1,48.0,30.16,NNW,331,6.3,7.2,74,0.00,,---,0.00,VWS V14.01,2013-08-15 06:13:00,
2013-08-15 02:19:00,56.1,48.0,30.16,NW,309,5.4,6.3,74,0.00,,---,0.00,VWS V14.01,2013-08-15 06:19:00,
2013-08-15 02:24:00,55.9,47.8,30.16,NW,318,5.4,7.2,74,0.00,,---,0.00,VWS V14.01,2013-08-15 06:24:00,
2013-08-15 02:29:00,55.9,47.8,30.16,NNW,342,6.3,6.3,74,0.00,,---,0.00,VWS V14.01,2013-08-15 06:29:00,
2013-08-15 02:34:00,55.9,47.8,30.16,NNW,342,5.4,5.4,74,0.00,,---,0.00,VWS V14.01,2013-08-15 06:34:00,
2013-08-15 02:39:00,55.8,48.0,30.16,NNW,342,5.4,6.3,75,0.00,,---,0.00,VWS V14.01,2013-08-15 06:39:00,
2013-08-15 02:44:00,55.6,47.8,30.16,NW,315,4.5,5.4,75,0.00,,---,0.00,VWS V14.01,2013-08-15 06:44:00,
2013-08-15 02:49:00,55.4,47.6,30.16,NNW,328,4.5,8.1,75,0.00,,---,0.00,VWS V14.01,2013-08-15 06:49:00,
2013-08-15 02:54:00,55.2,47.8,30.16,North,350,5.4,5.4,76,0.00,,---,0.00,VWS V14.01,2013-08-15 06:54:00,
2013-08-15 02:59:00,55.0,47.6,30.16,NNW,348,5.4,7.2,76,0.00,,---,0.00,VWS V14.01,2013-08-15 06:59:00,
2013-08-15 03:04:00,54.9,47.5,30.16,NNW,341,4.5,5.4,76,0.00,,---,0.00,VWS V14.01,2013-08-15 07:04:00,
2013-08-15 03:10:00,54.9,47.8,30.16,NNW,341,4.5,7.2,77,0.00,,---,0.00,VWS V14.01,2013-08-15 07:10:00,
2013-08-15 03:15:00,54.7,47.6,30.16,NNW,339,6.3,6.3,77,0.00,,---,0.00,VWS V14.01,2013-08-15 07:15:00,
2013-08-15 03:20:00,54.7,47.6,30.16,NNW,339,4.5,4.5,77,0.00,,---,0.00,VWS V14.01,2013-08-15 07:20:00,
2013-08-15 03:25:00,54.5,47.8,30.16,NW,324,5.4,5.4,78,0.00,,---,0.00,VWS V14.01,2013-08-15 07:25:00,
2013-08-15 03:30:00,54.5,47.8,30.16,NW,322,8.1,8.1,78,0.00,,---,0.00,VWS V14.01,2013-08-15 07:30:00,
2013-08-15 03:35:00,54.5,47.8,30.16,NNW,332,4.5,4.5,78,0.00,,---,0.00,VWS V14.01,2013-08-15 07:35:00,
2013-08-15 03:40:00,54.3,48.0,30.16,NNW,332,0.0,0.0,79,0.00,,---,0.00,VWS V14.01,2013-08-15 07:40:00,
2013-08-15 03:45:00,54.3,48.0,30.16,NNW,332,0.0,4.5,79,0.00,,---,0.00,VWS V14.01,2013-08-15 07:45:00,
2013-08-15 03:50:00,54.1,47.8,30.16,NNW,332,5.4,5.4,79,0.00,,---,0.00,VWS V14.01,2013-08-15 07:50:00,
2013-08-15 03:55:00,54.1,47.8,30.16,NNW,332,4.5,5.4,79,0.00,,---,0.00,VWS V14.01,2013-08-15 07:55:00,
2013-08-15 04:01:00,54.0,47.6,30.16,NNW,332,5.4,5.4,79,0.00,,---,0.00,VWS V14.01,2013-08-15 08:01:00,
2013-08-15 04:06:00,54.0,47.9,30.16,NNW,332,0.0,5.4,80,0.00,,---,0.00,VWS V14.01,2013-08-15 08:06:00,
2013-08-15 04:11:00,53.8,47.8,30.16,NNW,332,0.0,0.0,80,0.00,,---,0.00,VWS V14.01,2013-08-15 08:11:00,
2013-08-15 04:16:00,53.8,47.8,30.16,NNW,332,5.4,5.4,80,0.00,,---,0.00,VWS V14.01,2013-08-15 08:16:00,
2013-08-15 04:21:00,53.6,47.6,30.16,NNW,332,0.0,5.4,80,0.00,,---,0.00,VWS V14.01,2013-08-15 08:21:00,
2013-08-15 04:26:00,53.6,47.6,30.16,NNW,332,0.0,0.0,80,0.00,,---,0.00,VWS V14.01,2013-08-15 08:26:00,
2013-08-15 04:31:00,53.4,47.7,30.16,NNW,332,0.0,0.0,81,0.00,,---,0.00,VWS V14.01,2013-08-15 08:31:00,
2013-08-15 04:36:00,53.4,47.7,30.16,NNW,332,0.0,0.0,81,0.00,,---,0.00,VWS V14.01,2013-08-15 08:36:00,
2013-08-15 04:41:00,53.2,47.6,30.16,NNW,332,0.0,0.0,81,0.00,,---,0.00,VWS V14.01,2013-08-15 08:41:00,
2013-08-15 04:47:00,53.2,47.6,30.16,NNW,332,0.0,0.0,81,0.00,,---,0.00,VWS V14.01,2013-08-15 08:47:00,
2013-08-15 04:52:00,53.1,47.4,30.16,NNW,332,0.0,0.0,81,0.00,,---,0.00,VWS V14.01,2013-08-15 08:52:00,
2013-08-15 04:57:00,53.1,47.4,30.16,NNW,332,0.0,0.0,81,0.00,,---,0.00,VWS V14.01,2013-08-15 08:57:00,
2013-08-15 05:02:00,52.9,47.2,30.16,NNW,332,0.0,0.0,81,0.00,,---,0.00,VWS V14.01,2013-08-15 09:02:00,
2013-08-15 05:07:00,52.7,47.0,30.16,NNW,332,0.0,0.0,81,0.00,,---,0.00,VWS V14.01,2013-08-15 09:07:00,
2013-08-15 05:12:00,52.5,46.9,30.16,NNW,332,0.0,0.0,81,0.00,,---,0.00,VWS V14.01,2013-08-15 09:12:00,
2013-08-15 05:17:00,52.3,46.7,30.16,NNW,332,0.0,0.0,81,0.00,,---,0.00,VWS V14.01,2013-08-15 09:17:00,
2013-08-15 05:22:00,52.2,46.5,30.16,NNW,332,0.0,0.0,81,0.00,,---,0.00,VWS V14.01,2013-08-15 09:22:00,
2013-08-15 05:27:00,52.0,46.7,30.16,NNW,332,0.0,0.0,82,0.00,,---,0.00,VWS V14.01,2013-08-15 09:27:00,
2013-08-15 05:32:00,51.8,46.5,30.16,NNW,332,0.0,0.0,82,0.00,,---,0.00,VWS V14.01,2013-08-15 09:32:00,
2013-08-15 05:37:00,51.6,46.3,30.16,NNW,332,0.0,0.0,82,0.00,,---,0.00,VWS V14.01,2013-08-15 09:37:00,
2013-08-15 05:43:00,51.6,46.6,30.16,NNW,332,0.0,0.0,83,0.00,,---,0.00,VWS V14.01,2013-08-15 09:43:00,
2013-08-15 05:48:00,51.4,46.5,30.16,NNW,332,0.0,0.0,83,0.00,,---,0.00,VWS V14.01,2013-08-15 09:48:00,
2013-08-15 05:53:00,51.4,46.5,30.16,NNW,332,0.0,0.0,83,0.00,,---,0.00,VWS V14.01,2013-08-15 09:53:00,
2013-08-15 05:58:00,51.3,46.3,30.16,NNW,332,0.0,0.0,83,0.00,,---,0.00,VWS V14.01,2013-08-15 09:58:00,
2013-08-15 06:03:00,51.1,46.1,30.16,NNW,332,0.0,0.0,83,0.00,,---,0.00,VWS V14.01,2013-08-15 10:03:00,
2013-08-15 06:08:00,51.1,46.1,30.16,NNW,332,0.0,0.0,83,0.00,,---,0.00,VWS V14.01,2013-08-15 10:08:00,
2013-08-15 06:13:00,50.9,45.9,30.16,NNW,332,0.0,0.0,83,0.00,,---,0.00,VWS V14.01,2013-08-15 10:13:00,
2013-08-15 06:18:00,50.9,46.2,30.16,NNW,332,0.0,0.0,84,0.00,,---,0.00,VWS V14.01,2013-08-15 10:18:00,
2013-08-15 06:23:00,50.9,46.2,30.16,NNW,332,0.0,0.0,84,0.00,,---,0.00,VWS V14.01,2013-08-15 10:23:00,
2013-08-15 06:28:00,50.7,46.1,30.16,NNW,332,0.0,0.0,84,0.00,,---,0.00,VWS V14.01,2013-08-15 10:28:00,
2013-08-15 06:33:00,50.7,46.1,30.16,NNW,332,0.0,0.0,84,0.00,,---,0.00,VWS V14.01,2013-08-15 10:33:00,
2013-08-15 06:39:00,50.7,46.1,30.16,NNW,332,0.0,0.0,84,0.00,,---,0.00,VWS V14.01,2013-08-15 10:39:00,
2013-08-15 06:44:00,50.5,45.9,30.16,NNW,332,0.0,0.0,84,0.00,,---,0.00,VWS V14.01,2013-08-15 10:44:00,
2013-08-15 06:49:00,50.7,46.4,30.16,NNW,332,0.0,0.0,85,0.00,,---,0.00,VWS V14.01,2013-08-15 10:49:00,
2013-08-15 06:54:00,50.7,46.4,30.16,NNW,332,0.0,0.0,85,0.00,,---,0.00,VWS V14.01,2013-08-15 10:54:00,
2013-08-15 06:59:00,50.9,46.6,30.16,NNW,332,0.0,0.0,85,0.00,,---,0.00,VWS V14.01,2013-08-15 10:59:00,
2013-08-15 07:04:00,51.1,46.7,30.16,NNW,332,0.0,0.0,85,0.00,,---,0.00,VWS V14.01,2013-08-15 11:04:00,
2013-08-15 07:09:00,51.3,46.9,30.16,NNW,332,0.0,0.0,85,0.00,,---,0.00,VWS V14.01,2013-08-15 11:09:00,
2013-08-15 07:14:00,51.3,47.2,30.16,NNW,332,0.0,0.0,86,0.00,,---,0.00,VWS V14.01,2013-08-15 11:14:00,
2013-08-15 07:19:00,51.4,47.4,30.19,NNW,332,0.0,0.0,86,0.00,,---,0.00,VWS V14.01,2013-08-15 11:19:00,
2013-08-15 07:24:00,51.6,47.6,30.19,NNW,332,0.0,0.0,86,0.00,,---,0.00,VWS V14.01,2013-08-15 11:24:00,
2013-08-15 07:29:00,51.6,47.6,30.19,NNW,332,0.0,0.0,86,0.00,,---,0.00,VWS V14.01,2013-08-15 11:29:00,
2013-08-15 07:35:00,51.8,47.8,30.19,NNW,332,0.0,0.0,86,0.00,,---,0.00,VWS V14.01,2013-08-15 11:35:00,
2013-08-15 07:40:00,52.0,47.9,30.19,NNW,332,0.0,0.0,86,0.00,,---,0.00,VWS V14.01,2013-08-15 11:40:00,
2013-08-15 07:45:00,52.0,47.9,30.19,WSW,256,5.4,5.4,86,0.00,,---,0.00,VWS V14.01,2013-08-15 11:45:00,
2013-08-15 07:50:00,52.2,48.4,30.19,WNW,303,0.0,0.0,87,0.00,,---,0.00,VWS V14.01,2013-08-15 11:50:00,
2013-08-15 07:55:00,52.3,48.6,30.19,NW,305,0.0,0.0,87,0.00,,---,0.00,VWS V14.01,2013-08-15 11:55:00,
2013-08-15 08:00:00,52.7,49.0,30.19,NW,306,0.0,0.0,87,0.00,,---,0.00,VWS V14.01,2013-08-15 12:00:00,
2013-08-15 08:05:00,53.1,49.3,30.19,NNW,327,0.0,0.0,87,0.00,,---,0.00,VWS V14.01,2013-08-15 12:05:00,
2013-08-15 08:10:00,53.4,50.0,30.19,NNW,334,0.0,4.5,88,0.00,,---,0.00,VWS V14.01,2013-08-15 12:10:00,
2013-08-15 08:15:00,54.0,50.5,30.19,NNW,347,9.8,13.4,88,0.00,,---,0.00,VWS V14.01,2013-08-15 12:15:00,
2013-08-15 08:20:00,54.7,51.2,30.19,NW,311,7.2,8.1,88,0.00,,---,0.00,VWS V14.01,2013-08-15 12:20:00,
2013-08-15 08:25:00,55.0,51.6,30.19,NW,310,0.0,0.0,88,0.00,,---,0.00,VWS V14.01,2013-08-15 12:25:00,
2013-08-15 08:30:00,55.4,51.6,30.19,North,351,6.3,10.7,87,0.00,,---,0.00,VWS V14.01,2013-08-15 12:30:00,
2013-08-15 08:35:00,55.8,51.6,30.19,NNW,340,5.4,11.6,86,0.00,,---,0.00,VWS V14.01,2013-08-15 12:35:00,
2013-08-15 08:40:00,55.9,51.8,30.19,NNW,328,6.3,11.6,86,0.00,,---,0.00,VWS V14.01,2013-08-15 12:40:00,
2013-08-15 08:45:00,56.1,51.7,30.19,NNE,21,9.8,10.7,85,0.00,,---,0.00,VWS V14.01,2013-08-15 12:45:00,
2013-08-15 08:51:00,56.3,51.9,30.19,NW,320,0.0,9.8,85,0.00,,---,0.00,VWS V14.01,2013-08-15 12:51:00,
2013-08-15 08:56:00,56.7,51.9,30.19,SW,224,4.5,5.4,84,0.00,,---,0.00,VWS V14.01,2013-08-15 12:56:00,
2013-08-15 09:01:00,56.8,51.7,30.19,NW,309,0.0,0.0,83,0.00,,---,0.00,VWS V14.01,2013-08-15 13:01:00,
2013-08-15 09:06:00,57.0,51.6,30.19,WSW,250,0.0,0.0,82,0.00,,---,0.00,VWS V14.01,2013-08-15 13:06:00,
2013-08-15 09:11:00,57.4,51.6,30.19,NW,312,7.2,8.1,81,0.00,,---,0.00,VWS V14.01,2013-08-15 13:11:00,
2013-08-15 09:16:00,57.6,51.8,30.19,NNW,335,0.0,4.5,81,0.00,,---,0.00,VWS V14.01,2013-08-15 13:16:00,
2013-08-15 09:21:00,57.9,51.8,30.19,NNW,333,0.0,7.2,80,0.00,,---,0.00,VWS V14.01,2013-08-15 13:21:00,
2013-08-15 09:26:00,58.3,51.8,30.19,NNW,333,0.0,0.0,79,0.00,,---,0.00,VWS V14.01,2013-08-15 13:26:00,
2013-08-15 09:31:00,58.5,51.6,30.19,SW,229,0.0,0.0,78,0.00,,---,0.00,VWS V14.01,2013-08-15 13:31:00,
2013-08-15 09:36:00,58.8,51.6,30.19,NW,316,0.0,5.4,77,0.00,,---,0.00,VWS V14.01,2013-08-15 13:36:00,
2013-08-15 09:41:00,59.2,51.6,30.19,NNW,337,5.4,7.2,76,0.00,,---,0.00,VWS V14.01,2013-08-15 13:41:00,
2013-08-15 09:47:00,59.4,51.1,30.19,WNW,302,0.0,0.0,74,0.00,,---,0.00,VWS V14.01,2013-08-15 13:47:00,
2013-08-15 09:52:00,59.7,51.1,30.19,WSW,245,7.2,7.2,73,0.00,,---,0.00,VWS V14.01,2013-08-15 13:52:00,
2013-08-15 09:57:00,60.1,51.4,30.19,South,177,6.3,6.3,73,0.00,,---,0.00,VWS V14.01,2013-08-15 13:57:00,
2013-08-15 10:02:00,60.3,51.2,30.19,WNW,292,5.4,6.3,72,0.00,,---,0.00,VWS V14.01,2013-08-15 14:02:00,
2013-08-15 10:07:00,60.4,51.0,30.19,NNW,341,7.2,8.1,71,0.00,,---,0.00,VWS V14.01,2013-08-15 14:07:00,
2013-08-15 10:12:00,60.6,51.6,30.19,North,352,5.4,7.2,72,0.00,,---,0.00,VWS V14.01,2013-08-15 14:12:00,
2013-08-15 10:17:00,61.0,50.8,30.19,NNW,334,0.0,7.2,69,0.00,,---,0.00,VWS V14.01,2013-08-15 14:17:00,
2013-08-15 10:22:00,61.2,50.9,30.19,WNW,296,0.0,4.5,69,0.00,,---,0.00,VWS V14.01,2013-08-15 14:22:00,
2013-08-15 10:27:00,61.5,50.9,30.19,WNW,293,0.0,8.1,68,0.00,,---,0.00,VWS V14.01,2013-08-15 14:27:00,
2013-08-15 10:33:00,61.7,51.0,30.19,WNW,287,5.4,6.3,68,0.00,,---,0.00,VWS V14.01,2013-08-15 14:33:00,
2013-08-15 10:38:00,62.1,50.2,30.19,WSW,244,5.4,5.4,65,0.00,,---,0.00,VWS V14.01,2013-08-15 14:38:00,
2013-08-15 10:43:00,62.2,49.9,30.19,NNW,340,0.0,0.0,64,0.00,,---,0.00,VWS V14.01,2013-08-15 14:43:00,
2013-08-15 10:49:00,62.4,50.1,30.19,NNW,336,6.3,6.3,64,0.00,,---,0.00,VWS V14.01,2013-08-15 14:49:00,
2013-08-15 10:54:00,62.8,49.6,30.19,South,169,0.0,0.0,62,0.00,,---,0.00,VWS V14.01,2013-08-15 14:54:00,
2013-08-15 10:59:00,63.1,49.5,30.19,WNW,297,6.3,6.3,61,0.00,,---,0.00,VWS V14.01,2013-08-15 14:59:00,
2013-08-15 11:04:00,63.1,48.6,30.19,WNW,287,5.4,7.2,59,0.00,,---,0.00,VWS V14.01,2013-08-15 15:04:00,
2013-08-15 11:09:00,63.5,47.1,30.19,SE,142,7.2,9.8,55,0.00,,---,0.00,VWS V14.01,2013-08-15 15:09:00,
2013-08-15 11:14:00,63.7,47.2,30.19,SSE,164,11.6,11.6,55,0.00,,---,0.00,VWS V14.01,2013-08-15 15:14:00,
2013-08-15 11:19:00,64.0,47.6,30.19,WSW,237,0.0,6.3,55,0.00,,---,0.00,VWS V14.01,2013-08-15 15:19:00,
2013-08-15 11:24:00,64.2,47.7,30.19,WSW,248,6.3,6.3,55,0.00,,---,0.00,VWS V14.01,2013-08-15 15:24:00,
2013-08-15 11:30:00,64.4,46.4,30.19,WNW,293,4.5,5.4,52,0.00,,---,0.00,VWS V14.01,2013-08-15 15:30:00,
2013-08-15 11:35:00,64.8,47.2,30.19,WNW,294,0.0,0.0,53,0.00,,---,0.00,VWS V14.01,2013-08-15 15:35:00,
2013-08-15 11:40:00,65.1,47.1,30.19,SSE,156,12.5,12.5,52,0.00,,---,0.00,VWS V14.01,2013-08-15 15:40:00,
2013-08-15 11:45:00,65.5,47.4,30.19,South,171,0.0,4.5,52,0.00,,---,0.00,VWS V14.01,2013-08-15 15:45:00,
2013-08-15 11:50:00,65.5,45.8,30.19,SE,138,7.2,13.4,49,0.00,,---,0.00,VWS V14.01,2013-08-15 15:50:00,
2013-08-15 11:55:00,65.7,46.0,30.19,SSE,149,10.7,10.7,49,0.00,,---,0.00,VWS V14.01,2013-08-15 15:55:00,
2013-08-15 12:00:00,65.8,46.7,30.19,SSE,167,0.0,6.3,50,0.00,,---,0.00,VWS V14.01,2013-08-15 16:00:00,
2013-08-15 12:05:00,66.2,46.0,30.19,WSW,238,8.1,8.1,48,0.00,,---,0.00,VWS V14.01,2013-08-15 16:05:00,
2013-08-15 12:10:00,66.4,46.1,30.19,SSE,162,8.1,8.1,48,0.00,,---,0.00,VWS V14.01,2013-08-15 16:10:00,
2013-08-15 12:15:00,66.6,45.7,30.16,South,177,0.0,0.0,47,0.00,,---,0.00,VWS V14.01,2013-08-15 16:15:00,
2013-08-15 12:20:00,66.7,46.5,30.16,NW,322,0.0,0.0,48,0.00,,---,0.00,VWS V14.01,2013-08-15 16:20:00,
2013-08-15 12:25:00,66.9,44.3,30.16,North,356,8.9,8.9,44,0.00,,---,0.00,VWS V14.01,2013-08-15 16:25:00,
2013-08-15 12:31:00,67.3,45.2,30.16,NNW,346,6.3,6.3,45,0.00,,---,0.00,VWS V14.01,2013-08-15 16:31:00,
2013-08-15 12:36:00,67.6,46.1,30.16,SE,140,5.4,6.3,46,0.00,,---,0.00,VWS V14.01,2013-08-15 16:36:00,
2013-08-15 12:41:00,67.8,46.3,30.16,SSE,161,11.6,11.6,46,0.00,,---,0.00,VWS V14.01,2013-08-15 16:41:00,
2013-08-15 12:46:00,67.8,46.3,30.16,South,173,8.1,11.6,46,0.00,,---,0.00,VWS V14.01,2013-08-15 16:46:00,
2013-08-15 12:51:00,68.2,46.6,30.16,SSE,148,6.3,8.1,46,0.00,,---,0.00,VWS V14.01,2013-08-15 16:51:00,
2013-08-15 12:56:00,68.5,47.0,30.16,NNW,348,6.3,6.3,46,0.00,,---,0.00,VWS V14.01,2013-08-15 16:56:00,
2013-08-15 13:01:00,68.9,46.7,30.16,WSW,238,0.0,4.5,45,0.00,,---,0.00,VWS V14.01,2013-08-15 17:01:00,
2013-08-15 13:06:00,69.3,46.4,30.16,WSW,240,8.1,11.6,44,0.00,,---,0.00,VWS V14.01,2013-08-15 17:06:00,
2013-08-15 13:11:00,69.3,46.4,30.16,North,360,0.0,6.3,44,0.00,,---,0.00,VWS V14.01,2013-08-15 17:11:00,
2013-08-15 13:17:00,69.4,46.6,30.16,SE,143,8.1,8.1,44,0.00,,---,0.00,VWS V14.01,2013-08-15 17:17:00,
2013-08-15 13:22:00,69.6,47.4,30.16,SW,217,0.0,7.2,45,0.00,,---,0.00,VWS V14.01,2013-08-15 17:22:00,
2013-08-15 13:27:00,69.6,46.8,30.16,SE,146,0.0,0.0,44,0.00,,---,0.00,VWS V14.01,2013-08-15 17:27:00,
2013-08-15 13:32:00,69.6,46.2,30.16,NW,319,10.7,12.5,43,0.00,,---,0.00,VWS V14.01,2013-08-15 17:32:00,
2013-08-15 13:37:00,70.0,46.5,30.16,NNW,346,8.1,8.1,43,0.00,,---,0.00,VWS V14.01,2013-08-15 17:37:00,
2013-08-15 13:42:00,70.3,46.2,30.16,NW,304,11.6,11.6,42,0.00,,---,0.00,VWS V14.01,2013-08-15 17:42:00,
2013-08-15 13:47:00,70.5,45.1,30.16,NNW,345,5.4,5.4,40,0.00,,---,0.00,VWS V14.01,2013-08-15 17:47:00,
2013-08-15 13:52:00,70.5,44.4,30.16,NNW,347,0.0,0.0,39,0.00,,---,0.00,VWS V14.01,2013-08-15 17:52:00,
2013-08-15 13:57:00,70.7,45.2,30.16,NW,326,0.0,8.1,40,0.00,,---,0.00,VWS V14.01,2013-08-15 17:57:00,
2013-08-15 14:02:00,70.9,45.4,30.16,NNE,21,7.2,11.6,40,0.00,,---,0.00,VWS V14.01,2013-08-15 18:02:00,
2013-08-15 14:07:00,71.1,44.9,30.16,West,260,8.1,8.1,39,0.00,,---,0.00,VWS V14.01,2013-08-15 18:07:00,
2013-08-15 14:12:00,71.2,45.0,30.16,NW,325,5.4,8.1,39,0.00,,---,0.00,VWS V14.01,2013-08-15 18:12:00,
2013-08-15 14:18:00,71.4,45.9,30.14,West,274,6.3,6.3,40,0.00,,---,0.00,VWS V14.01,2013-08-15 18:18:00,
2013-08-15 14:23:00,71.4,45.9,30.14,SSE,151,0.0,0.0,40,0.00,,---,0.00,VWS V14.01,2013-08-15 18:23:00,
2013-08-15 14:28:00,70.9,46.0,30.14,WNW,285,0.0,0.0,41,0.00,,---,0.00,VWS V14.01,2013-08-15 18:28:00,
2013-08-15 14:33:00,70.3,45.5,30.14,North,358,0.0,0.0,41,0.00,,---,0.00,VWS V14.01,2013-08-15 18:33:00,
2013-08-15 14:38:00,70.3,46.2,30.14,ESE,114,0.0,0.0,42,0.00,,---,0.00,VWS V14.01,2013-08-15 18:38:00,
2013-08-15 14:43:00,70.7,46.5,30.14,NW,319,0.0,6.3,42,0.00,,---,0.00,VWS V14.01,2013-08-15 18:43:00,
2013-08-15 14:48:00,71.1,45.5,30.14,WNW,286,0.0,6.3,40,0.00,,---,0.00,VWS V14.01,2013-08-15 18:48:00,
2013-08-15 14:53:00,71.1,46.2,30.14,WNW,286,0.0,0.0,41,0.00,,---,0.00,VWS V14.01,2013-08-15 18:53:00,
2013-08-15 14:58:00,70.5,45.7,30.14,SSE,148,7.2,8.1,41,0.00,,---,0.00,VWS V14.01,2013-08-15 18:58:00,
2013-08-15 15:03:00,69.8,45.7,30.14,NW,315,5.4,6.3,42,0.00,,---,0.00,VWS V14.01,2013-08-15 19:03:00,
2013-08-15 15:08:00,69.4,45.4,30.14,SSE,161,8.1,8.1,42,0.00,,---,0.00,VWS V14.01,2013-08-15 19:08:00,
2013-08-15 15:14:00,69.1,45.0,30.14,WSW,248,0.0,0.0,42,0.00,,---,0.00,VWS V14.01,2013-08-15 19:14:00,
2013-08-15 15:19:00,69.1,45.7,30.14,South,175,4.5,5.4,43,0.00,,---,0.00,VWS V14.01,2013-08-15 19:19:00,
2013-08-15 15:24:00,69.3,45.8,30.14,West,280,0.0,0.0,43,0.00,,---,0.00,VWS V14.01,2013-08-15 19:24:00,
2013-08-15 15:29:00,69.3,45.8,30.14,NW,307,4.5,5.4,43,0.00,,---,0.00,VWS V14.01,2013-08-15 19:29:00,
2013-08-15 15:34:00,69.4,46.0,30.14,NW,306,6.3,6.3,43,0.00,,---,0.00,VWS V14.01,2013-08-15 19:34:00,
2013-08-15 15:39:00,69.4,46.0,30.14,WNW,282,0.0,7.2,43,0.00,,---,0.00,VWS V14.01,2013-08-15 19:39:00,
2013-08-15 15:44:00,69.6,46.2,30.14,West,264,8.1,8.1,43,0.00,,---,0.00,VWS V14.01,2013-08-15 19:44:00,
2013-08-15 15:49:00,69.8,46.3,30.14,WSW,257,0.0,7.2,43,0.00,,---,0.00,VWS V14.01,2013-08-15 19:49:00,
2013-08-15 15:54:00,70.0,46.5,30.14,South,176,0.0,6.3,43,0.00,,---,0.00,VWS V14.01,2013-08-15 19:54:00,
2013-08-15 15:59:00,70.2,46.0,30.14,WSW,247,6.3,7.2,42,0.00,,---,0.00,VWS V14.01,2013-08-15 19:59:00,
2013-08-15 16:05:00,70.5,46.3,30.14,South,177,8.1,11.6,42,0.00,,---,0.00,VWS V14.01,2013-08-15 20:05:00,
2013-08-15 16:10:00,70.3,46.2,30.14,SSE,163,7.2,7.2,42,0.00,,---,0.00,VWS V14.01,2013-08-15 20:10:00,
2013-08-15 16:15:00,70.0,45.9,30.14,SSE,163,0.0,4.5,42,0.00,,---,0.00,VWS V14.01,2013-08-15 20:15:00,
2013-08-15 16:20:00,70.2,46.0,30.14,NNW,345,9.8,11.6,42,0.00,,---,0.00,VWS V14.01,2013-08-15 20:20:00,
2013-08-15 16:25:00,70.3,46.2,30.14,NNW,343,5.4,7.2,42,0.00,,---,0.00,VWS V14.01,2013-08-15 20:25:00,
2013-08-15 16:30:00,70.5,46.3,30.14,South,188,6.3,7.2,42,0.00,,---,0.00,VWS V14.01,2013-08-15 20:30:00,
2013-08-15 16:35:00,70.5,47.0,30.14,NW,314,7.2,7.2,43,0.00,,---,0.00,VWS V14.01,2013-08-15 20:35:00,
2013-08-15 16:40:00,70.7,46.5,30.14,NW,319,0.0,5.4,42,0.00,,---,0.00,VWS V14.01,2013-08-15 20:40:00,
2013-08-15 16:45:00,70.9,46.7,30.11,NW,314,6.3,8.1,42,0.00,,---,0.00,VWS V14.01,2013-08-15 20:45:00,
2013-08-15 16:50:00,71.1,46.8,30.11,North,2,10.7,10.7,42,0.00,,---,0.00,VWS V14.01,2013-08-15 20:50:00,
2013-08-15 16:55:00,71.2,47.0,30.11,SW,228,0.0,6.3,42,0.00,,---,0.00,VWS V14.01,2013-08-15 20:55:00,
2013-08-15 17:00:00,71.2,47.0,30.11,WSW,248,0.0,5.4,42,0.00,,---,0.00,VWS V14.01,2013-08-15 21:00:00,
2013-08-15 17:05:00,71.2,47.0,30.11,WSW,240,0.0,0.0,42,0.00,,---,0.00,VWS V14.01,2013-08-15 21:05:00,
2013-08-15 17:10:00,71.2,47.0,30.11,SW,226,7.2,8.9,42,0.00,,---,0.00,VWS V14.01,2013-08-15 21:10:00,
2013-08-15 17:15:00,71.1,46.8,30.11,South,184,0.0,0.0,42,0.00,,---,0.00,VWS V14.01,2013-08-15 21:15:00,
2013-08-15 17:20:00,70.9,46.7,30.11,SW,223,4.5,5.4,42,0.00,,---,0.00,VWS V14.01,2013-08-15 21:20:00,
2013-08-15 17:25:00,70.7,46.5,30.11,SSW,203,0.0,0.0,42,0.00,,---,0.00,VWS V14.01,2013-08-15 21:25:00,
2013-08-15 17:30:00,70.7,46.5,30.11,SSW,203,0.0,0.0,42,0.00,,---,0.00,VWS V14.01,2013-08-15 21:30:00,
2013-08-15 17:36:00,70.7,46.5,30.11,SSE,157,6.3,6.3,42,0.00,,---,0.00,VWS V14.01,2013-08-15 21:36:00,
2013-08-15 17:41:00,70.9,46.7,30.11,WNW,283,5.4,5.4,42,0.00,,---,0.00,VWS V14.01,2013-08-15 21:41:00,
2013-08-15 17:46:00,70.7,46.5,30.11,NE,44,0.0,4.5,42,0.00,,---,0.00,VWS V14.01,2013-08-15 21:46:00,
2013-08-15 17:51:00,70.5,46.3,30.11,WSW,250,8.1,8.1,42,0.00,,---,0.00,VWS V14.01,2013-08-15 21:51:00,
2013-08-15 17:56:00,70.2,46.0,30.11,WSW,254,5.4,6.3,42,0.00,,---,0.00,VWS V14.01,2013-08-15 21:56:00,
2013-08-15 18:01:00,70.0,45.9,30.11,West,264,0.0,0.0,42,0.00,,---,0.00,VWS V14.01,2013-08-15 22:01:00,
2013-08-15 18:06:00,70.0,45.9,30.11,West,265,0.0,0.0,42,0.00,,---,0.00,VWS V14.01,2013-08-15 22:06:00,
2013-08-15 18:11:00,70.0,46.5,30.11,SSE,156,8.1,10.7,43,0.00,,---,0.00,VWS V14.01,2013-08-15 22:11:00,
2013-08-15 18:16:00,70.0,46.5,30.11,SSW,209,5.4,5.4,43,0.00,,---,0.00,VWS V14.01,2013-08-15 22:16:00,
2013-08-15 18:21:00,70.2,46.6,30.11,SE,144,5.4,15.2,43,0.00,,---,0.00,VWS V14.01,2013-08-15 22:21:00,
2013-08-15 18:26:00,70.2,46.6,30.11,SSE,161,0.0,0.0,43,0.00,,---,0.00,VWS V14.01,2013-08-15 22:26:00,
2013-08-15 18:31:00,70.2,46.6,30.11,SSW,197,7.2,7.2,43,0.00,,---,0.00,VWS V14.01,2013-08-15 22:31:00,
2013-08-15 18:36:00,70.2,46.6,30.11,SSE,150,0.0,0.0,43,0.00,,---,0.00,VWS V14.01,2013-08-15 22:36:00,
2013-08-15 18:42:00,70.2,47.2,30.11,SE,140,8.1,8.1,44,0.00,,---,0.00,VWS V14.01,2013-08-15 22:42:00,
2013-08-15 18:47:00,70.0,46.5,30.11,WNW,291,10.7,10.7,43,0.00,,---,0.00,VWS V14.01,2013-08-15 22:47:00,
2013-08-15 18:52:00,70.0,46.5,30.11,NW,304,5.4,7.2,43,0.00,,---,0.00,VWS V14.01,2013-08-15 22:52:00,
2013-08-15 18:57:00,69.8,46.3,30.11,SSW,199,5.4,5.4,43,0.00,,---,0.00,VWS V14.01,2013-08-15 22:57:00,
2013-08-15 19:02:00,69.8,46.3,30.11,NW,310,0.0,0.0,43,0.00,,---,0.00,VWS V14.01,2013-08-15 23:02:00,
2013-08-15 19:07:00,69.6,46.8,30.11,SSW,206,6.3,6.3,44,0.00,,---,0.00,VWS V14.01,2013-08-15 23:07:00,
2013-08-15 19:12:00,69.4,46.6,30.11,SSW,194,0.0,0.0,44,0.00,,---,0.00,VWS V14.01,2013-08-15 23:12:00,
2013-08-15 19:17:00,69.3,46.4,30.11,WSW,254,0.0,0.0,44,0.00,,---,0.00,VWS V14.01,2013-08-15 23:17:00,
2013-08-15 19:22:00,69.1,46.3,30.11,WSW,254,0.0,0.0,44,0.00,,---,0.00,VWS V14.01,2013-08-15 23:22:00,
2013-08-15 19:27:00,68.9,46.1,30.11,SW,219,0.0,0.0,44,0.00,,---,0.00,VWS V14.01,2013-08-15 23:27:00,
2013-08-15 19:32:00,68.7,46.5,30.11,SW,227,0.0,0.0,45,0.00,,---,0.00,VWS V14.01,2013-08-15 23:32:00,
2013-08-15 19:37:00,68.4,46.2,30.11,SW,227,0.0,0.0,45,0.00,,---,0.00,VWS V14.01,2013-08-15 23:37:00,
2013-08-15 19:42:00,68.2,46.0,30.11,SW,227,0.0,0.0,45,0.00,,---,0.00,VWS V14.01,2013-08-15 23:42:00,
2013-08-15 19:47:00,68.0,46.5,30.14,SW,227,0.0,0.0,46,0.00,,---,0.00,VWS V14.01,2013-08-15 23:47:00,
2013-08-15 19:52:00,67.8,46.9,30.14,SW,227,0.0,0.0,47,0.00,,---,0.00,VWS V14.01,2013-08-15 23:52:00,
2013-08-15 19:57:00,67.6,46.7,30.14,SW,227,0.0,0.0,47,0.00,,---,0.00,VWS V14.01,2013-08-15 23:57:00,
2013-08-15 20:03:00,67.3,46.4,30.14,SW,227,0.0,0.0,47,0.00,,---,0.00,VWS V14.01,2013-08-16 00:03:00,
2013-08-15 20:08:00,67.1,46.2,30.14,SW,227,0.0,0.0,47,0.00,,---,0.00,VWS V14.01,2013-08-16 00:08:00,
2013-08-15 20:13:00,66.9,46.6,30.14,SW,227,0.0,0.0,48,0.00,,---,0.00,VWS V14.01,2013-08-16 00:13:00,
2013-08-15 20:18:00,66.7,46.5,30.14,SW,227,0.0,0.0,48,0.00,,---,0.00,VWS V14.01,2013-08-16 00:18:00,
2013-08-15 20:23:00,66.6,46.3,30.14,SW,227,0.0,0.0,48,0.00,,---,0.00,VWS V14.01,2013-08-16 00:23:00,
2013-08-15 20:28:00,66.2,46.5,30.14,SW,227,0.0,0.0,49,0.00,,---,0.00,VWS V14.01,2013-08-16 00:28:00,
2013-08-15 20:33:00,66.0,46.3,30.14,SW,227,0.0,0.0,49,0.00,,---,0.00,VWS V14.01,2013-08-16 00:33:00,
2013-08-15 20:38:00,65.8,46.7,30.14,SW,227,0.0,0.0,50,0.00,,---,0.00,VWS V14.01,2013-08-16 00:38:00,
2013-08-15 20:43:00,65.7,46.5,30.14,SW,227,0.0,0.0,50,0.00,,---,0.00,VWS V14.01,2013-08-16 00:43:00,
2013-08-15 20:48:00,65.5,46.9,30.14,SW,227,0.0,0.0,51,0.00,,---,0.00,VWS V14.01,2013-08-16 00:48:00,
2013-08-15 20:53:00,65.1,46.6,30.14,SW,227,0.0,0.0,51,0.00,,---,0.00,VWS V14.01,2013-08-16 00:53:00,
2013-08-15 20:58:00,64.8,46.7,30.14,SW,227,0.0,0.0,52,0.00,,---,0.00,VWS V14.01,2013-08-16 00:58:00,
2013-08-15 21:03:00,64.6,46.6,30.14,SW,227,0.0,0.0,52,0.00,,---,0.00,VWS V14.01,2013-08-16 01:03:00,
2013-08-15 21:08:00,64.2,46.8,30.14,SW,227,0.0,0.0,53,0.00,,---,0.00,VWS V14.01,2013-08-16 01:08:00,
2013-08-15 21:13:00,64.0,47.1,30.14,SW,227,0.0,0.0,54,0.00,,---,0.00,VWS V14.01,2013-08-16 01:13:00,
2013-08-15 21:19:00,63.7,47.2,30.14,SW,227,0.0,0.0,55,0.00,,---,0.00,VWS V14.01,2013-08-16 01:19:00,
2013-08-15 21:24:00,63.5,47.1,30.14,SW,227,0.0,0.0,55,0.00,,---,0.00,VWS V14.01,2013-08-16 01:24:00,
2013-08-15 21:29:00,63.3,47.4,30.14,SW,227,0.0,0.0,56,0.00,,---,0.00,VWS V14.01,2013-08-16 01:29:00,
2013-08-15 21:34:00,63.1,47.2,30.14,SW,227,0.0,0.0,56,0.00,,---,0.00,VWS V14.01,2013-08-16 01:34:00,
2013-08-15 21:40:00,63.0,47.5,30.14,SW,227,0.0,0.0,57,0.00,,---,0.00,VWS V14.01,2013-08-16 01:40:00,
2013-08-15 21:45:00,62.6,47.2,30.14,SW,227,0.0,0.0,57,0.00,,---,0.00,VWS V14.01,2013-08-16 01:45:00,
2013-08-15 21:50:00,62.4,47.5,30.14,SW,227,0.0,0.0,58,0.00,,---,0.00,VWS V14.01,2013-08-16 01:50:00,
2013-08-15 21:55:00,62.2,47.3,30.14,SW,227,0.0,0.0,58,0.00,,---,0.00,VWS V14.01,2013-08-16 01:55:00,
2013-08-15 22:00:00,62.1,47.6,30.14,SW,227,0.0,0.0,59,0.00,,---,0.00,VWS V14.01,2013-08-16 02:00:00,
2013-08-15 22:05:00,61.9,47.9,30.14,SW,227,0.0,0.0,60,0.00,,---,0.00,VWS V14.01,2013-08-16 02:05:00,
2013-08-15 22:10:00,61.9,47.9,30.14,SW,227,0.0,0.0,60,0.00,,---,0.00,VWS V14.01,2013-08-16 02:10:00,
2013-08-15 22:15:00,61.7,48.1,30.14,SW,227,0.0,0.0,61,0.00,,---,0.00,VWS V14.01,2013-08-16 02:15:00,
2013-08-15 22:20:00,61.5,48.0,30.14,SW,227,0.0,0.0,61,0.00,,---,0.00,VWS V14.01,2013-08-16 02:20:00,
2013-08-15 22:25:00,61.3,48.2,30.14,SW,227,0.0,0.0,62,0.00,,---,0.00,VWS V14.01,2013-08-16 02:25:00,
2013-08-15 22:30:00,61.3,48.2,30.14,SW,227,0.0,0.0,62,0.00,,---,0.00,VWS V14.01,2013-08-16 02:30:00,
2013-08-15 22:35:00,61.3,48.7,30.14,SW,227,0.0,0.0,63,0.00,,---,0.00,VWS V14.01,2013-08-16 02:35:00,
2013-08-15 22:41:00,61.3,48.7,30.14,SW,227,0.0,0.0,63,0.00,,---,0.00,VWS V14.01,2013-08-16 02:41:00,
2013-08-15 22:46:00,61.3,48.7,30.14,SW,227,0.0,0.0,63,0.00,,---,0.00,VWS V14.01,2013-08-16 02:46:00,
2013-08-15 22:51:00,61.3,49.1,30.14,SW,227,0.0,0.0,64,0.00,,---,0.00,VWS V14.01,2013-08-16 02:51:00,
2013-08-15 22:56:00,61.2,48.9,30.14,SW,227,0.0,0.0,64,0.00,,---,0.00,VWS V14.01,2013-08-16 02:56:00,
2013-08-15 23:01:00,61.2,48.9,30.14,SW,227,0.0,0.0,64,0.00,,---,0.00,VWS V14.01,2013-08-16 03:01:00,
2013-08-15 23:06:00,61.3,49.1,30.14,SW,227,0.0,0.0,64,0.00,,---,0.00,VWS V14.01,2013-08-16 03:06:00,
2013-08-15 23:11:00,61.3,49.5,30.14,SW,227,0.0,0.0,65,0.00,,---,0.00,VWS V14.01,2013-08-16 03:11:00,
2013-08-15 23:16:00,61.3,49.5,30.14,SW,227,0.0,0.0,65,0.00,,---,0.00,VWS V14.01,2013-08-16 03:16:00,
2013-08-15 23:22:00,61.3,49.5,30.14,SW,227,0.0,0.0,65,0.00,,---,0.00,VWS V14.01,2013-08-16 03:22:00,
2013-08-15 23:27:00,61.3,49.5,30.14,SW,227,0.0,0.0,65,0.00,,---,0.00,VWS V14.01,2013-08-16 03:27:00,
2013-08-15 23:32:00,61.2,49.7,30.14,SW,227,0.0,0.0,66,0.00,,---,0.00,VWS V14.01,2013-08-16 03:32:00,
2013-08-15 23:37:00,61.0,49.5,30.14,SW,227,0.0,0.0,66,0.00,,---,0.00,VWS V14.01,2013-08-16 03:37:00,
2013-08-15 23:42:00,60.8,49.4,30.14,SW,227,0.0,0.0,66,0.00,,---,0.00,VWS V14.01,2013-08-16 03:42:00,
2013-08-15 23:47:00,60.6,49.6,30.14,SW,227,0.0,0.0,67,0.00,,---,0.00,VWS V14.01,2013-08-16 03:47:00,
2013-08-15 23:52:00,60.4,49.4,30.14,SW,227,0.0,0.0,67,0.00,,---,0.00,VWS V14.01,2013-08-16 03:52:00,
2013-08-15 23:57:00,60.4,49.8,30.14,SW,227,0.0,0.0,68,0.00,,---,0.00,VWS V14.01,2013-08-16 03:57:00,